Time;durP1;ratioP1;P1;durP2;ratioP2;P2;SDS_P1;SDS_P2;PMS_P1;PMS_P2;Temp;Humidity;BMP_temperature;BMP_pressure;BME280_temperature;BME280_humidity;BME280_pressure;Samples;Min_cycle;Max_cycle;Signal;HPM_P1;HPM_P2
2021/12/15 00:00:57;;;;;;;;;;;8.00;99.90;;;;;;5053303;28;20417;-75
2021/12/15 00:03:23;;;;;;;;;;;8.00;99.90;;;;;;5051188;28;19916;-75
2021/12/15 00:05:50;;;;;;;;;;;8.00;99.90;;;;;;5052962;28;19995;-74
2021/12/15 00:08:16;;;;;;;;;;;7.90;99.90;;;;;;5052487;28;19917;-75
2021/12/15 00:10:42;;;;;;;;;;;8.00;99.90;;;;;;5053205;28;20374;-76
2021/12/15 00:13:08;;;;;;;;;;;8.00;99.90;;;;;;5053084;28;19912;-74
2021/12/15 00:15:34;;;;;;;;;;;8.10;99.90;;;;;;5052072;28;20383;-75
2021/12/15 00:17:59;;;;;;;;;;;8.20;99.90;;;;;;5052276;28;19978;-75
2021/12/15 00:20:26;;;;;;;;;;;8.10;99.90;;;;;;5052331;28;19905;-75
2021/12/15 00:22:52;;;;;;;;;;;8.10;99.90;;;;;;5051520;28;20067;-75
2021/12/15 00:25:20;;;;;;;;;;;8.10;99.90;;;;;;5052230;28;20454;-74
2021/12/15 00:27:45;;;;;;;;;;;8.10;99.90;;;;;;5053146;28;19940;-75
2021/12/15 00:30:11;;;;;;;;;;;8.00;99.90;;;;;;5052462;28;20351;-75
2021/12/15 00:32:37;;;;;;;;;;;8.00;99.90;;;;;;5052513;28;19905;-75
2021/12/15 00:35:04;;;;;;;;;;;8.10;99.90;;;;;;5052618;28;19905;-74
2021/12/15 00:37:30;;;;;;;;;;;8.10;99.90;;;;;;5062037;28;20007;-73
2021/12/15 00:39:55;;;;;;;;;;;8.10;99.90;;;;;;5069674;28;19934;-73
2021/12/15 00:42:21;;;;;;;;;;;8.00;99.90;;;;;;5061239;28;19913;-74
2021/12/15 00:44:46;;;;;;;;;;;8.00;99.90;;;;;;5052296;28;19931;-75
2021/12/15 00:47:13;;;;;;;;;;;8.00;99.90;;;;;;5052236;28;19911;-74
2021/12/15 00:49:39;;;;;;;;;;;7.90;99.90;;;;;;5049798;28;19904;-75
2021/12/15 00:52:05;;;;;;;;;;;8.00;99.90;;;;;;5052787;28;19904;-75
2021/12/15 00:54:30;;;;;;;;;;;8.00;99.90;;;;;;5051557;28;19932;-75
2021/12/15 00:56:56;;;;;;;;;;;8.00;99.90;;;;;;5052300;28;19954;-75
2021/12/15 00:59:22;;;;;;;;;;;8.10;99.90;;;;;;5051605;28;19954;-74
2021/12/15 01:01:48;;;;;;;;;;;8.00;99.90;;;;;;5052338;28;20307;-74
2021/12/15 01:04:15;;;;;;;;;;;8.10;99.90;;;;;;5052289;28;19988;-74
2021/12/15 01:06:42;;;;;;;;;;;8.10;99.90;;;;;;5052096;28;19924;-74
2021/12/15 01:09:11;;;;;;;;;;;8.10;99.90;;;;;;5052232;28;19911;-74
2021/12/15 01:12:05;;;;;;;;;;;8.10;99.90;;;;;;5051839;28;20426;-74
2021/12/15 01:19:45;;;;;;;;;;;8.10;99.90;;;;;;5051417;28;19905;-74
2021/12/15 01:20:08;;;;;;;;;;;8.20;99.90;;;;;;5052143;28;19943;-73
2021/12/15 01:22:36;;;;;;;;;;;8.10;99.90;;;;;;5051718;28;20278;-74
2021/12/15 01:25:10;;;;;;;;;;;8.20;99.90;;;;;;5052248;28;20434;-74
2021/12/15 01:27:36;;;;;;;;;;;8.20;99.90;;;;;;5051738;28;19900;-74
2021/12/15 01:30:03;;;;;;;;;;;8.20;99.90;;;;;;5052350;28;19908;-74
2021/12/15 01:32:28;;;;;;;;;;;8.30;99.90;;;;;;5051454;28;19912;-74
2021/12/15 01:34:54;;;;;;;;;;;8.30;99.90;;;;;;5052364;28;19905;-74
2021/12/15 01:37:20;;;;;;;;;;;8.30;99.90;;;;;;5051915;28;20267;-74
2021/12/15 01:39:46;;;;;;;;;;;8.30;99.90;;;;;;5050997;28;19936;-74
2021/12/15 01:42:12;;;;;;;;;;;8.30;99.90;;;;;;5052225;28;20018;-74
2021/12/15 01:47:22;;;;;;;;;;;8.40;99.90;;;;;;5051241;28;19955;-74
2021/12/15 01:49:49;;;;;;;;;;;8.30;99.90;;;;;;5052024;28;19908;-74
2021/12/15 01:52:15;;;;;;;;;;;8.30;99.90;;;;;;5052471;28;20290;-74
2021/12/15 01:54:42;;;;;;;;;;;8.30;99.90;;;;;;5051446;28;19912;-74
2021/12/15 01:57:08;;;;;;;;;;;8.40;99.90;;;;;;5052141;28;19991;-74
2021/12/15 01:59:34;;;;;;;;;;;8.50;99.90;;;;;;5051534;28;20363;-74
2021/12/15 02:02:00;;;;;;;;;;;8.40;99.90;;;;;;5054775;28;19912;-74
2021/12/15 02:04:26;;;;;;;;;;;8.40;99.90;;;;;;5054776;28;20014;-74
2021/12/15 02:06:54;;;;;;;;;;;8.40;99.90;;;;;;5055081;28;20371;-74
2021/12/15 02:09:40;;;;;;;;;;;8.30;99.90;;;;;;5055126;28;20334;-74
2021/12/15 02:12:06;;;;;;;;;;;8.30;99.90;;;;;;5055512;28;19963;-74
2021/12/15 02:14:33;;;;;;;;;;;8.40;99.90;;;;;;5054894;28;19963;-74
2021/12/15 02:16:59;;;;;;;;;;;8.40;99.90;;;;;;5055490;28;19912;-75
2021/12/15 02:19:25;;;;;;;;;;;8.50;99.90;;;;;;5054831;28;19909;-74
2021/12/15 02:21:50;;;;;;;;;;;8.50;99.90;;;;;;5055399;28;19905;-74
2021/12/15 02:24:16;;;;;;;;;;;8.60;99.90;;;;;;5055274;28;19912;-74
2021/12/15 02:26:48;;;;;;;;;;;8.60;99.90;;;;;;5054745;28;19905;-74
2021/12/15 02:29:18;;;;;;;;;;;8.60;99.90;;;;;;5055335;28;19912;-74
2021/12/15 02:34:33;;;;;;;;;;;8.50;99.90;;;;;;5055142;28;20398;-74
2021/12/15 02:37:18;;;;;;;;;;;8.40;99.90;;;;;;5054762;28;19940;-74
2021/12/15 02:39:43;;;;;;;;;;;8.30;99.90;;;;;;5054299;28;19905;-74
2021/12/15 02:42:09;;;;;;;;;;;8.20;99.90;;;;;;5054888;28;19912;-74
2021/12/15 02:44:35;;;;;;;;;;;8.20;99.90;;;;;;5054275;28;20401;-74
2021/12/15 02:47:00;;;;;;;;;;;8.10;99.90;;;;;;5054945;28;19912;-74
2021/12/15 02:49:27;;;;;;;;;;;8.00;99.90;;;;;;5054157;28;20336;-74
2021/12/15 02:51:55;;;;;;;;;;;7.90;99.90;;;;;;5054782;28;19909;-74
2021/12/15 02:54:21;;;;;;;;;;;7.90;99.90;;;;;;5054902;28;19904;-74
2021/12/15 02:56:49;;;;;;;;;;;7.80;99.90;;;;;;5054356;28;19905;-74
2021/12/15 02:59:16;;;;;;;;;;;7.90;99.90;;;;;;5054762;28;19908;-74
2021/12/15 03:02:12;;;;;;;;;;;7.90;99.90;;;;;;5053976;28;20083;-74
2021/12/15 03:15:34;;;;;;;;;;;7.70;99.90;;;;;;5079746;28;19913;-74
2021/12/15 03:17:59;;;;;;;;;;;7.70;99.90;;;;;;5053460;28;19905;-74
2021/12/15 03:20:27;;;;;;;;;;;7.70;99.90;;;;;;5053878;28;19905;-74
2021/12/15 03:22:52;;;;;;;;;;;7.70;99.90;;;;;;5054284;28;19917;-74
2021/12/15 03:25:18;;;;;;;;;;;7.70;99.90;;;;;;5054258;28;19905;-74
2021/12/15 03:36:00;;;;;;;;;;;7.90;99.90;;;;;;5053511;28;19931;-74
2021/12/15 03:38:26;;;;;;;;;;;7.90;99.90;;;;;;5053611;28;19998;-74
2021/12/15 03:40:52;;;;;;;;;;;7.90;99.90;;;;;;5053831;28;19913;-74
2021/12/15 03:43:18;;;;;;;;;;;8.00;99.90;;;;;;5053602;28;20405;-74
2021/12/15 03:45:47;;;;;;;;;;;8.00;99.90;;;;;;5052970;28;19912;-74
2021/12/15 03:48:15;;;;;;;;;;;8.10;99.90;;;;;;5053907;28;19955;-75
2021/12/15 03:50:42;;;;;;;;;;;8.00;99.90;;;;;;5052978;28;19909;-74
2021/12/15 03:53:09;;;;;;;;;;;8.00;99.90;;;;;;5053696;28;19905;-74
2021/12/15 03:55:35;;;;;;;;;;;8.10;99.90;;;;;;5052948;28;20030;-74
2021/12/15 03:58:06;;;;;;;;;;;8.10;99.90;;;;;;5052280;28;20363;-74
2021/12/15 04:00:32;;;;;;;;;;;8.10;99.90;;;;;;5053264;28;19928;-75
2021/12/15 04:02:57;;;;;;;;;;;8.10;99.90;;;;;;5053296;28;20359;-74
2021/12/15 04:05:23;;;;;;;;;;;8.00;99.90;;;;;;5053398;28;20355;-73
2021/12/15 04:07:49;;;;;;;;;;;8.00;99.90;;;;;;5051982;28;19920;-73
2021/12/15 04:10:18;;;;;;;;;;;8.10;99.90;;;;;;5052125;28;20391;-74
2021/12/15 04:12:44;;;;;;;;;;;8.00;99.90;;;;;;5052698;28;19904;-73
2021/12/15 04:15:29;;;;;;;;;;;8.00;99.90;;;;;;5053653;28;19904;-73
2021/12/15 04:17:55;;;;;;;;;;;8.00;99.90;;;;;;5052802;28;20378;-73
2021/12/15 04:20:23;;;;;;;;;;;8.00;99.90;;;;;;5053114;28;19988;-73
2021/12/15 04:22:48;;;;;;;;;;;8.10;99.90;;;;;;5052230;28;19908;-74
2021/12/15 04:25:16;;;;;;;;;;;8.20;99.90;;;;;;5053021;28;19959;-73
2021/12/15 04:27:51;;;;;;;;;;;8.30;99.90;;;;;;5052439;28;20302;-73
2021/12/15 04:30:17;;;;;;;;;;;8.30;99.90;;;;;;5053086;28;19905;-74
2021/12/15 04:32:44;;;;;;;;;;;8.30;99.90;;;;;;5052408;28;19905;-73
2021/12/15 04:35:11;;;;;;;;;;;8.20;99.90;;;;;;5052647;28;19912;-73
2021/12/15 04:37:37;;;;;;;;;;;8.20;99.90;;;;;;5052256;28;19973;-73
2021/12/15 04:40:04;;;;;;;;;;;8.20;99.90;;;;;;5052645;28;20427;-73
2021/12/15 04:42:29;;;;;;;;;;;8.20;99.90;;;;;;5052609;28;19936;-73
2021/12/15 04:44:56;;;;;;;;;;;8.20;99.90;;;;;;5052576;28;20339;-73
2021/12/15 04:47:22;;;;;;;;;;;8.20;99.90;;;;;;5052749;28;19913;-73
2021/12/15 04:49:50;;;;;;;;;;;8.20;99.90;;;;;;5067290;28;19952;-74
2021/12/15 04:52:17;;;;;;;;;;;8.30;99.90;;;;;;5052905;28;19905;-74
2021/12/15 04:54:42;;;;;;;;;;;8.40;99.90;;;;;;5052173;28;20359;-74
2021/12/15 04:57:09;;;;;;;;;;;8.30;99.90;;;;;;5052695;28;19905;-73
2021/12/15 04:59:35;;;;;;;;;;;8.50;99.90;;;;;;5050854;28;20262;-74
2021/12/15 05:02:01;;;;;;;;;;;8.50;99.90;;;;;;5052353;28;19967;-74
2021/12/15 05:04:27;;;;;;;;;;;8.50;99.90;;;;;;5052645;28;20278;-73
2021/12/15 05:06:53;;;;;;;;;;;8.60;99.90;;;;;;5051769;28;20461;-74
2021/12/15 05:09:18;;;;;;;;;;;8.60;99.90;;;;;;5052397;28;19912;-73
2021/12/15 05:11:47;;;;;;;;;;;8.60;99.90;;;;;;5051759;28;19911;-73
2021/12/15 05:14:13;;;;;;;;;;;8.70;99.90;;;;;;5052798;28;19908;-73
2021/12/15 05:16:38;;;;;;;;;;;8.60;99.90;;;;;;5051613;28;19911;-74
2021/12/15 05:19:04;;;;;;;;;;;8.60;99.90;;;;;;5052220;28;19958;-74
2021/12/15 05:21:30;;;;;;;;;;;8.70;99.90;;;;;;5052433;28;19912;-73
2021/12/15 05:24:00;;;;;;;;;;;8.70;99.90;;;;;;5051770;28;19920;-73
2021/12/15 05:26:29;;;;;;;;;;;8.70;99.90;;;;;;5052342;28;19904;-74
2021/12/15 05:28:54;;;;;;;;;;;8.70;99.90;;;;;;5051417;28;19901;-74
2021/12/15 05:31:20;;;;;;;;;;;8.60;99.90;;;;;;5051992;28;19933;-74
2021/12/15 05:33:46;;;;;;;;;;;8.60;99.90;;;;;;5051631;28;20236;-74
2021/12/15 05:36:11;;;;;;;;;;;8.70;99.90;;;;;;5066274;28;19905;-73
2021/12/15 05:38:37;;;;;;;;;;;8.70;99.90;;;;;;5068673;28;20298;-74
2021/12/15 05:41:03;;;;;;;;;;;8.70;99.90;;;;;;5056941;28;20051;-74
2021/12/15 05:43:28;;;;;;;;;;;8.70;99.90;;;;;;5056144;28;19971;-74
2021/12/15 05:45:54;;;;;;;;;;;8.70;99.90;;;;;;5055556;28;20477;-74
2021/12/15 05:48:20;;;;;;;;;;;8.80;99.90;;;;;;5055813;28;19982;-74
2021/12/15 05:50:46;;;;;;;;;;;8.80;99.90;;;;;;5053675;28;19912;-74
2021/12/15 05:53:12;;;;;;;;;;;8.90;99.90;;;;;;5055990;28;19909;-74
2021/12/15 05:55:38;;;;;;;;;;;8.90;99.90;;;;;;5055007;28;20406;-74
2021/12/15 05:58:04;;;;;;;;;;;8.90;99.90;;;;;;5055799;28;19912;-74
2021/12/15 06:00:31;;;;;;;;;;;8.80;99.90;;;;;;5055798;28;20294;-74
2021/12/15 06:02:57;;;;;;;;;;;8.90;99.90;;;;;;5055093;28;19915;-74
2021/12/15 06:05:23;;;;;;;;;;;8.90;99.90;;;;;;5055745;28;19987;-74
2021/12/15 06:07:49;;;;;;;;;;;8.90;99.90;;;;;;5054457;28;19923;-74
2021/12/15 06:10:18;;;;;;;;;;;8.90;99.90;;;;;;5054328;28;20024;-74
2021/12/15 06:12:47;;;;;;;;;;;8.90;99.90;;;;;;5054900;28;20000;-74
2021/12/15 06:15:14;;;;;;;;;;;8.90;99.90;;;;;;5054395;28;20268;-74
2021/12/15 06:17:39;;;;;;;;;;;8.90;99.90;;;;;;5055340;28;19905;-74
2021/12/15 06:20:05;;;;;;;;;;;8.90;99.90;;;;;;5055453;28;19905;-74
2021/12/15 06:22:33;;;;;;;;;;;9.00;99.90;;;;;;5054829;28;19966;-74
2021/12/15 06:24:58;;;;;;;;;;;9.00;99.90;;;;;;5054536;28;19905;-74
2021/12/15 06:27:25;;;;;;;;;;;9.00;99.90;;;;;;5070859;28;20256;-74
2021/12/15 06:29:51;;;;;;;;;;;9.00;99.90;;;;;;5053289;28;19911;-74
2021/12/15 06:32:17;;;;;;;;;;;9.10;99.90;;;;;;5070727;28;19905;-74
2021/12/15 06:34:44;;;;;;;;;;;9.10;99.90;;;;;;5054529;28;20417;-74
2021/12/15 06:37:09;;;;;;;;;;;9.00;99.90;;;;;;5054953;28;19905;-73
2021/12/15 06:39:35;;;;;;;;;;;9.10;99.90;;;;;;5054983;28;19905;-74
2021/12/15 06:42:01;;;;;;;;;;;9.00;99.90;;;;;;5054282;28;19987;-73
2021/12/15 06:44:27;;;;;;;;;;;9.00;99.90;;;;;;5054998;28;19954;-74
2021/12/15 07:00:29;;;;;;;;;;;9.10;99.90;;;;;;5054677;28;19911;-73
2021/12/15 07:02:55;;;;;;;;;;;9.00;99.90;;;;;;5054010;28;19913;-75
2021/12/15 07:05:21;;;;;;;;;;;9.10;99.90;;;;;;5054588;28;19991;-75
2021/12/15 07:07:47;;;;;;;;;;;9.10;99.90;;;;;;5053743;28;20343;-73
2021/12/15 07:10:14;;;;;;;;;;;9.20;99.90;;;;;;5054700;28;19908;-73
2021/12/15 07:12:40;;;;;;;;;;;9.30;99.90;;;;;;5054248;28;19911;-74
2021/12/15 07:15:06;;;;;;;;;;;9.30;99.90;;;;;;5054024;28;19999;-74
2021/12/15 07:17:32;;;;;;;;;;;9.30;99.90;;;;;;5052866;28;19909;-74
2021/12/15 07:24:54;;;;;;;;;;;9.30;99.90;;;;;;5053375;28;19912;-74
2021/12/15 07:27:20;;;;;;;;;;;9.30;99.90;;;;;;5053509;28;19904;-74
2021/12/15 07:29:46;;;;;;;;;;;9.30;99.90;;;;;;5053494;28;19905;-75
2021/12/15 07:32:11;;;;;;;;;;;9.30;99.90;;;;;;5054104;28;19913;-75
2021/12/15 07:34:37;;;;;;;;;;;9.30;99.90;;;;;;5053576;28;19991;-74
2021/12/15 07:37:03;;;;;;;;;;;9.20;99.90;;;;;;5053227;28;19909;-74
2021/12/15 07:39:28;;;;;;;;;;;9.20;99.90;;;;;;5054341;28;19947;-74
2021/12/15 07:42:04;;;;;;;;;;;9.20;99.90;;;;;;5053227;28;19987;-74
2021/12/15 07:44:30;;;;;;;;;;;9.10;99.90;;;;;;5053667;28;19905;-75
2021/12/15 07:46:55;;;;;;;;;;;9.10;99.90;;;;;;5051588;28;19988;-74
2021/12/15 07:49:22;;;;;;;;;;;9.20;99.90;;;;;;5054208;28;19911;-75
2021/12/15 07:51:48;;;;;;;;;;;9.30;99.90;;;;;;5052984;28;19950;-75
2021/12/15 07:54:14;;;;;;;;;;;9.30;99.90;;;;;;5053393;28;19959;-75
2021/12/15 07:56:42;;;;;;;;;;;9.40;99.90;;;;;;5053666;28;19908;-75
2021/12/15 07:59:07;;;;;;;;;;;9.30;99.90;;;;;;5052756;28;19905;-75
2021/12/15 08:01:33;;;;;;;;;;;9.30;99.90;;;;;;5053466;28;20034;-76
2021/12/15 08:03:58;;;;;;;;;;;9.30;99.90;;;;;;5052698;28;19920;-74
2021/12/15 08:06:25;;;;;;;;;;;9.30;99.90;;;;;;5053334;28;19904;-74
2021/12/15 08:08:52;;;;;;;;;;;9.30;99.90;;;;;;5051435;28;20413;-74
2021/12/15 08:11:18;;;;;;;;;;;9.30;99.90;;;;;;5053386;28;19956;-74
2021/12/15 08:13:43;;;;;;;;;;;9.30;99.90;;;;;;5053245;28;20315;-74
2021/12/15 08:16:14;;;;;;;;;;;9.30;99.90;;;;;;5052384;28;19905;-74
2021/12/15 08:18:40;;;;;;;;;;;9.30;99.90;;;;;;5068316;28;19958;-74
2021/12/15 08:21:06;;;;;;;;;;;9.20;99.90;;;;;;5052532;28;20015;-74
2021/12/15 08:23:31;;;;;;;;;;;9.20;99.90;;;;;;5053006;28;20346;-75
2021/12/15 08:25:57;;;;;;;;;;;9.20;99.90;;;;;;5052185;28;19908;-75
2021/12/15 08:28:23;;;;;;;;;;;9.10;99.90;;;;;;5053140;28;19974;-75
2021/12/15 08:30:50;;;;;;;;;;;9.10;99.90;;;;;;5052377;28;20343;-75
2021/12/15 08:33:18;;;;;;;;;;;9.10;99.90;;;;;;5052696;28;19904;-74
2021/12/15 08:35:49;;;;;;;;;;;9.20;99.90;;;;;;5067758;28;19931;-75
2021/12/15 08:38:16;;;;;;;;;;;9.20;99.90;;;;;;5052627;28;20323;-75
2021/12/15 08:40:42;;;;;;;;;;;9.10;99.90;;;;;;5052496;28;19966;-74
2021/12/15 08:43:08;;;;;;;;;;;9.20;99.90;;;;;;5052102;28;19920;-74
2021/12/15 08:45:34;;;;;;;;;;;9.10;99.90;;;;;;5052393;28;19967;-75
2021/12/15 08:48:00;;;;;;;;;;;9.10;99.90;;;;;;5052229;28;19911;-75
2021/12/15 08:50:29;;;;;;;;;;;9.10;99.90;;;;;;5053064;28;19905;-75
2021/12/15 08:52:55;;;;;;;;;;;9.20;99.90;;;;;;5051961;28;19912;-75
2021/12/15 08:55:20;;;;;;;;;;;9.20;99.90;;;;;;5052180;28;20421;-75
2021/12/15 08:57:49;;;;;;;;;;;9.30;99.90;;;;;;5063839;28;19904;-75
2021/12/15 09:00:16;;;;;;;;;;;9.40;99.90;;;;;;5070031;28;19944;-75
2021/12/15 09:02:42;;;;;;;;;;;9.40;99.90;;;;;;5057511;28;19967;-76
2021/12/15 09:05:08;;;;;;;;;;;9.50;99.90;;;;;;5051327;28;20351;-76
2021/12/15 09:07:33;;;;;;;;;;;9.50;99.90;;;;;;5051847;28;19917;-76
2021/12/15 09:09:59;;;;;;;;;;;9.60;99.90;;;;;;5050598;28;19940;-76
2021/12/15 09:12:24;;;;;;;;;;;9.60;99.90;;;;;;5052250;28;19904;-76
2021/12/15 09:14:50;;;;;;;;;;;9.60;99.90;;;;;;5052294;28;20263;-76
2021/12/15 09:17:16;;;;;;;;;;;9.60;99.90;;;;;;5052200;28;19943;-75
2021/12/15 09:19:42;;;;;;;;;;;9.70;99.90;;;;;;5050836;28;20328;-75
2021/12/15 09:22:07;;;;;;;;;;;9.70;99.90;;;;;;5051177;28;19905;-74
2021/12/15 09:24:33;;;;;;;;;;;9.80;99.90;;;;;;5051340;28;19992;-74
2021/12/15 09:26:58;;;;;;;;;;;9.80;99.90;;;;;;5050674;28;19951;-73
2021/12/15 09:29:24;;;;;;;;;;;9.80;99.90;;;;;;5051274;28;19927;-75
2021/12/15 09:31:50;;;;;;;;;;;9.80;99.90;;;;;;5051591;28;19905;-75
2021/12/15 09:34:18;;;;;;;;;;;9.90;99.90;;;;;;5051717;28;19911;-75
2021/12/15 09:36:47;;;;;;;;;;;9.90;99.90;;;;;;5051381;28;19905;-74
2021/12/15 09:39:15;;;;;;;;;;;9.90;99.90;;;;;;5051006;28;19911;-75
2021/12/15 09:41:41;;;;;;;;;;;9.90;99.90;;;;;;5051515;28;19904;-74
2021/12/15 09:44:11;;;;;;;;;;;9.90;99.90;;;;;;5051023;28;19916;-76
2021/12/15 10:03:06;;;;;;;;;;;10.40;99.90;;;;;;5050930;28;19946;-76
2021/12/15 10:19:33;;;;;;;;;;;10.90;99.90;;;;;;5050998;28;19912;-76
2021/12/15 10:22:05;;;;;;;;;;;11.00;99.90;;;;;;5052035;28;19905;-75
2021/12/15 10:24:34;;;;;;;;;;;11.10;99.90;;;;;;5055237;28;19953;-74
2021/12/15 10:27:01;;;;;;;;;;;11.10;99.90;;;;;;5053870;28;20253;-75
2021/12/15 10:29:27;;;;;;;;;;;11.20;99.90;;;;;;5055032;28;19937;-75
2021/12/15 10:31:57;;;;;;;;;;;11.20;99.90;;;;;;5054802;28;20007;-75
2021/12/15 10:34:22;;;;;;;;;;;11.20;99.90;;;;;;5054768;28;19943;-75
2021/12/15 10:36:48;;;;;;;;;;;11.30;99.90;;;;;;5055035;28;19939;-76
2021/12/15 10:39:14;;;;;;;;;;;11.30;99.90;;;;;;5054182;28;19989;-75
2021/12/15 10:41:42;;;;;;;;;;;11.30;99.90;;;;;;5054688;28;19980;-76
2021/12/15 10:44:09;;;;;;;;;;;11.30;99.90;;;;;;5054093;28;19920;-75
2021/12/15 10:46:35;;;;;;;;;;;11.30;99.90;;;;;;5054188;28;20358;-75
2021/12/15 10:49:03;;;;;;;;;;;11.20;99.90;;;;;;5053968;28;19931;-75
2021/12/15 10:51:32;;;;;;;;;;;11.20;99.90;;;;;;5054551;28;19916;-75
2021/12/15 10:53:59;;;;;;;;;;;11.20;99.90;;;;;;5053707;28;20256;-75
2021/12/15 10:56:27;;;;;;;;;;;11.10;99.90;;;;;;5053220;28;19909;-75
2021/12/15 10:58:54;;;;;;;;;;;11.10;99.90;;;;;;5054419;28;19909;-74
2021/12/15 11:01:40;;;;;;;;;;;11.20;99.90;;;;;;5053961;28;19912;-74
2021/12/15 11:04:24;;;;;;;;;;;11.10;99.90;;;;;;5053905;28;19959;-76
2021/12/15 11:07:01;;;;;;;;;;;11.10;99.90;;;;;;5053946;28;20360;-76
2021/12/15 11:09:31;;;;;;;;;;;11.20;99.90;;;;;;5053768;28;19947;-76
2021/12/15 11:12:04;;;;;;;;;;;11.20;99.90;;;;;;5053581;28;19911;-76
2021/12/15 11:14:31;;;;;;;;;;;11.20;99.90;;;;;;5054243;28;19905;-75
2021/12/15 11:17:03;;;;;;;;;;;11.20;99.90;;;;;;5053527;28;19908;-75
2021/12/15 11:19:39;;;;;;;;;;;11.30;99.90;;;;;;5053690;28;20344;-75
2021/12/15 11:22:23;;;;;;;;;;;11.20;99.90;;;;;;5053108;28;19991;-75
2021/12/15 11:24:48;;;;;;;;;;;11.20;99.90;;;;;;5054090;28;19904;-76
2021/12/15 11:27:18;;;;;;;;;;;11.10;99.90;;;;;;5053040;28;20135;-75
2021/12/15 11:29:43;;;;;;;;;;;11.10;99.90;;;;;;5053458;28;19904;-76
2021/12/15 11:32:29;;;;;;;;;;;11.20;99.90;;;;;;5053063;28;19974;-74
2021/12/15 11:35:04;;;;;;;;;;;11.10;99.90;;;;;;5067330;28;19895;-77
2021/12/15 11:37:44;;;;;;;;;;;11.10;99.90;;;;;;5064112;28;19916;-77
2021/12/15 11:40:10;;;;;;;;;;;11.10;99.90;;;;;;5053022;28;19955;-75
2021/12/15 11:42:37;;;;;;;;;;;11.10;99.90;;;;;;5052612;28;19912;-74
2021/12/15 11:45:04;;;;;;;;;;;11.20;99.90;;;;;;5053162;28;19930;-75
2021/12/15 11:47:32;;;;;;;;;;;11.10;99.90;;;;;;5054116;28;20057;-74
2021/12/15 11:50:04;;;;;;;;;;;11.10;99.90;;;;;;5068341;28;19904;-74
2021/12/15 11:52:36;;;;;;;;;;;11.10;99.90;;;;;;5053099;28;19904;-75
2021/12/15 11:55:02;;;;;;;;;;;11.10;99.90;;;;;;5052406;28;20385;-75
2021/12/15 11:57:29;;;;;;;;;;;11.10;99.90;;;;;;5053299;28;19908;-75
2021/12/15 12:00:05;;;;;;;;;;;11.10;99.90;;;;;;5053078;28;19951;-75
2021/12/15 12:02:35;;;;;;;;;;;11.10;99.90;;;;;;5068756;28;20425;-75
2021/12/15 12:05:03;;;;;;;;;;;11.10;99.90;;;;;;5052619;28;19927;-75
2021/12/15 12:07:30;;;;;;;;;;;11.10;99.90;;;;;;5053051;28;19916;-75
2021/12/15 12:10:13;;;;;;;;;;;11.10;99.90;;;;;;5052767;28;19958;-75
2021/12/15 12:12:50;;;;;;;;;;;11.10;99.90;;;;;;5052998;28;19905;-75
2021/12/15 12:15:16;;;;;;;;;;;11.10;99.90;;;;;;5052245;28;19909;-75
2021/12/15 12:17:43;;;;;;;;;;;11.10;99.90;;;;;;5052644;28;20339;-76
2021/12/15 12:20:11;;;;;;;;;;;11.20;99.90;;;;;;5052246;28;19999;-75
2021/12/15 12:22:38;;;;;;;;;;;11.20;99.90;;;;;;5052717;28;19920;-75
2021/12/15 12:25:07;;;;;;;;;;;11.20;99.90;;;;;;5052055;28;20314;-75
2021/12/15 12:27:33;;;;;;;;;;;11.20;99.90;;;;;;5052564;28;19951;-74
2021/12/15 12:30:00;;;;;;;;;;;11.10;99.90;;;;;;5051971;28;20286;-74
2021/12/15 12:32:26;;;;;;;;;;;11.10;99.90;;;;;;5051237;28;19920;-75
2021/12/15 12:34:53;;;;;;;;;;;11.10;99.90;;;;;;5052225;28;19909;-75
2021/12/15 12:37:19;;;;;;;;;;;11.20;99.90;;;;;;5051498;28;19955;-75
2021/12/15 12:39:48;;;;;;;;;;;11.20;99.90;;;;;;5052363;28;19904;-75
2021/12/15 12:42:31;;;;;;;;;;;11.20;99.90;;;;;;5052100;28;19905;-74
2021/12/15 12:45:12;;;;;;;;;;;11.20;99.90;;;;;;5051701;28;19905;-75
2021/12/15 12:47:45;;;;;;;;;;;11.20;99.90;;;;;;5052569;28;19966;-74
2021/12/15 12:50:35;;;;;;;;;;;11.20;99.90;;;;;;5051907;28;19904;-74
2021/12/15 13:01:13;;;;;;;;;;;11.10;99.90;;;;;;5051910;28;19904;-74
2021/12/15 13:03:46;;;;;;;;;;;11.10;99.90;;;;;;5052666;28;19981;-74
2021/12/15 13:06:13;;;;;;;;;;;11.10;99.90;;;;;;5051767;28;19905;-74
2021/12/15 13:09:15;;;;;;;;;;;11.10;99.90;;;;;;5051972;28;20011;-74
2021/12/15 13:11:42;;;;;;;;;;;11.10;99.90;;;;;;5050441;28;20249;-74
2021/12/15 13:14:14;;;;;;;;;;;11.10;99.90;;;;;;5051717;28;19912;-75
2021/12/15 13:16:42;;;;;;;;;;;11.10;99.90;;;;;;5052079;28;19912;-74
2021/12/15 13:19:17;;;;;;;;;;;11.10;99.90;;;;;;5050107;28;19959;-74
2021/12/15 13:22:18;;;;;;;;;;;11.10;99.90;;;;;;5052171;28;19909;-75
2021/12/15 13:30:48;;;;;;;;;;;11.10;99.90;;;;;;5051770;28;19958;-74
2021/12/15 13:33:38;;;;;;;;;;;11.10;99.90;;;;;;5049973;28;19905;-74
2021/12/15 13:36:14;;;;;;;;;;;11.00;99.90;;;;;;5051700;28;19905;-74
2021/12/15 13:38:39;;;;;;;;;;;11.00;99.90;;;;;;5052109;28;19905;-75
2021/12/15 13:41:19;;;;;;;;;;;11.00;99.90;;;;;;5051362;28;19931;-75
2021/12/15 13:43:45;;;;;;;;;;;11.00;99.90;;;;;;5051937;28;19913;-75
2021/12/15 13:46:22;;;;;;;;;;;11.00;99.90;;;;;;5051303;28;19912;-74
2021/12/15 13:48:59;;;;;;;;;;;11.00;99.90;;;;;;5052255;28;19904;-74
2021/12/15 13:51:57;;;;;;;;;;;11.00;99.90;;;;;;5051336;28;19901;-75
2021/12/15 13:54:32;;;;;;;;;;;11.00;99.90;;;;;;5049769;28;19900;-75
2021/12/15 13:56:58;;;;;;;;;;;11.00;99.90;;;;;;5053015;28;20298;-73
2021/12/15 13:59:32;;;;;;;;;;;10.90;99.90;;;;;;5054665;28;19901;-74
2021/12/15 14:02:09;;;;;;;;;;;10.90;99.90;;;;;;5055613;28;19988;-74
2021/12/15 14:04:46;;;;;;;;;;;10.90;99.90;;;;;;5055514;28;19913;-75
2021/12/15 14:07:30;;;;;;;;;;;10.90;99.90;;;;;;5054503;28;19917;-75
2021/12/15 14:09:55;;;;;;;;;;;10.90;99.90;;;;;;5055093;28;19904;-75
2021/12/15 14:12:39;;;;;;;;;;;10.90;99.90;;;;;;5054841;28;19911;-74
2021/12/15 14:15:05;;;;;;;;;;;10.80;99.90;;;;;;5054769;28;19908;-74
2021/12/15 14:17:31;;;;;;;;;;;10.80;99.90;;;;;;5055081;28;20015;-75
2021/12/15 14:19:56;;;;;;;;;;;10.90;99.90;;;;;;5055219;28;19909;-75
2021/12/15 14:22:22;;;;;;;;;;;10.90;99.90;;;;;;5054447;28;20003;-74
2021/12/15 14:24:49;;;;;;;;;;;10.90;99.90;;;;;;5055425;28;19905;-74
2021/12/15 14:27:14;;;;;;;;;;;10.80;99.90;;;;;;5054636;28;20317;-74
2021/12/15 14:29:40;;;;;;;;;;;10.80;99.90;;;;;;5055002;28;19905;-75
2021/12/15 14:32:08;;;;;;;;;;;10.80;99.90;;;;;;5063890;28;19905;-75
2021/12/15 14:34:35;;;;;;;;;;;10.70;99.90;;;;;;5056864;28;19912;-74
2021/12/15 14:37:08;;;;;;;;;;;10.80;99.90;;;;;;5055094;28;19931;-75
2021/12/15 14:39:35;;;;;;;;;;;10.80;99.90;;;;;;5054840;28;19905;-75
2021/12/15 14:42:04;;;;;;;;;;;10.80;99.90;;;;;;5055107;28;19950;-75
2021/12/15 14:44:31;;;;;;;;;;;10.70;99.90;;;;;;5054326;28;19974;-75
2021/12/15 14:47:01;;;;;;;;;;;10.70;99.90;;;;;;5054802;28;20437;-75
2021/12/15 14:49:32;;;;;;;;;;;10.70;99.90;;;;;;5054168;28;19900;-74
2021/12/15 14:51:59;;;;;;;;;;;10.70;99.90;;;;;;5054584;28;19905;-73
2021/12/15 14:54:26;;;;;;;;;;;10.80;99.90;;;;;;5054076;28;19924;-75
2021/12/15 14:56:52;;;;;;;;;;;10.70;99.90;;;;;;5054412;28;19911;-74
2021/12/15 14:59:19;;;;;;;;;;;10.70;99.90;;;;;;5053934;28;19905;-74
2021/12/15 15:01:46;;;;;;;;;;;10.70;99.90;;;;;;5054401;28;19952;-74
2021/12/15 15:04:13;;;;;;;;;;;10.70;99.90;;;;;;5053798;28;20034;-74
2021/12/15 15:06:40;;;;;;;;;;;10.70;99.90;;;;;;5054263;28;20313;-74
2021/12/15 15:09:10;;;;;;;;;;;10.60;99.90;;;;;;5053482;28;19904;-75
2021/12/15 15:11:36;;;;;;;;;;;10.60;99.90;;;;;;5054641;28;19905;-74
2021/12/15 15:14:01;;;;;;;;;;;10.50;99.90;;;;;;5052881;28;19912;-74
2021/12/15 15:16:33;;;;;;;;;;;10.60;99.90;;;;;;5053571;28;19900;-74
2021/12/15 15:19:05;;;;;;;;;;;10.50;99.90;;;;;;5053967;28;19911;-75
2021/12/15 15:21:32;;;;;;;;;;;10.60;99.90;;;;;;5053141;28;19900;-75
2021/12/15 15:23:58;;;;;;;;;;;10.60;99.90;;;;;;5053698;28;19967;-75
2021/12/15 15:26:27;;;;;;;;;;;10.60;99.90;;;;;;5053278;28;19904;-75
2021/12/15 15:28:53;;;;;;;;;;;10.60;99.90;;;;;;5053688;28;19915;-75
2021/12/15 15:31:21;;;;;;;;;;;10.60;99.90;;;;;;5053307;28;19934;-75
2021/12/15 15:33:47;;;;;;;;;;;10.50;99.90;;;;;;5053757;28;19971;-75
2021/12/15 15:36:17;;;;;;;;;;;10.40;99.90;;;;;;5053084;28;19945;-75
2021/12/15 15:38:45;;;;;;;;;;;10.40;99.90;;;;;;5053798;28;20045;-75
2021/12/15 15:41:19;;;;;;;;;;;10.40;99.90;;;;;;5053268;28;19905;-75
2021/12/15 15:46:34;;;;;;;;;;;10.30;99.90;;;;;;5053007;28;19954;-75
2021/12/15 15:48:59;;;;;;;;;;;10.30;99.90;;;;;;5053185;28;19908;-75
2021/12/15 15:51:25;;;;;;;;;;;10.30;99.90;;;;;;5052534;28;20104;-75
2021/12/15 15:53:51;;;;;;;;;;;10.10;99.90;;;;;;5053066;28;19905;-75
2021/12/15 15:56:19;;;;;;;;;;;10.10;99.90;;;;;;5052689;28;19911;-75
2021/12/15 15:58:50;;;;;;;;;;;10.00;99.90;;;;;;5053229;28;20430;-75
2021/12/15 16:01:16;;;;;;;;;;;10.00;99.90;;;;;;5052692;28;19908;-75
2021/12/15 16:03:42;;;;;;;;;;;9.90;99.90;;;;;;5053332;28;19924;-75
2021/12/15 16:06:10;;;;;;;;;;;9.80;99.90;;;;;;5053152;28;20006;-75